createdAt,value
2023-03-22T00:00:17.133Z,101056.41
2023-03-22T00:02:43.832Z,101060.56
2023-03-22T00:05:11.674Z,101054.28
2023-03-22T00:07:38.394Z,101049.72
2023-03-22T00:10:05.849Z,101047.91
2023-03-22T00:12:32.349Z,101048.53
2023-03-22T00:15:00.118Z,101040.13
2023-03-22T00:17:26.600Z,101038.81
2023-03-22T00:19:54.559Z,101040.25
2023-03-22T00:22:21.777Z,101028.31
2023-03-22T00:24:48.365Z,101025.91
2023-03-22T00:27:14.940Z,101022.03
2023-03-22T00:29:44.388Z,101022.66
2023-03-22T00:32:13.989Z,101015.88
2023-03-22T00:34:40.663Z,101024.06
2023-03-22T00:37:08.060Z,101019.19
2023-03-22T00:39:34.641Z,101022.22
2023-03-22T00:42:01.465Z,101016.75
2023-03-22T00:44:27.992Z,101017.06
2023-03-22T00:46:54.526Z,101017.06
2023-03-22T00:49:21.947Z,101013.84
2023-03-22T00:51:48.475Z,101010.00
2023-03-22T00:54:15.992Z,101004.81
2023-03-22T00:56:46.434Z,101001.28
2023-03-22T00:59:14.345Z,100989.84
2023-03-22T01:01:43.008Z,100988.84
2023-03-22T01:04:18.188Z,100995.72
2023-03-22T01:06:46.994Z,100988.16
2023-03-22T01:09:15.094Z,100983.81
2023-03-22T01:11:45.934Z,100975.28
2023-03-22T01:14:16.777Z,100964.06
2023-03-22T01:16:43.359Z,100969.53
2023-03-22T01:19:10.102Z,100963.25
2023-03-22T01:21:37.794Z,100959.56
2023-03-22T01:24:04.514Z,100956.81
2023-03-22T01:26:31.323Z,100947.00
2023-03-22T01:28:57.845Z,100948.13
2023-03-22T01:31:24.525Z,100939.94
2023-03-22T01:33:51.398Z,100938.00
2023-03-22T01:36:17.974Z,100933.34
2023-03-22T01:38:44.663Z,100932.25
2023-03-22T01:41:11.748Z,100925.16
2023-03-22T01:43:42.225Z,100915.84
2023-03-22T01:46:09.690Z,100910.69
2023-03-22T01:48:46.263Z,100910.69
2023-03-22T01:51:24.813Z,100910.91
2023-03-22T01:54:08.955Z,100902.88
2023-03-22T01:56:39.094Z,100894.38
2023-03-22T01:59:10.170Z,100886.16
2023-03-22T02:02:04.608Z,100891.31
2023-03-22T02:04:36.671Z,100887.47
2023-03-22T02:07:15.186Z,100878.16
2023-03-22T02:09:43.352Z,100869.16
2023-03-22T02:12:41.758Z,100866.44
2023-03-22T02:15:29.736Z,100859.03
2023-03-22T02:18:38.921Z,100851.97
2023-03-22T02:21:31.802Z,100854.69
2023-03-22T02:24:23.475Z,100855.50
2023-03-22T02:27:10.562Z,100842.97
2023-03-22T02:29:45.123Z,100848.44
2023-03-22T02:32:31.824Z,100835.88
2023-03-22T02:35:26.439Z,100836.19
2023-03-22T02:38:20.484Z,100825.78
2023-03-22T02:41:23.797Z,100828.19
2023-03-22T02:44:28.056Z,100823.84
2023-03-22T02:47:06.857Z,100817.28
2023-03-22T02:49:45.978Z,100826.28
2023-03-22T02:52:33.470Z,100812.63
2023-03-22T02:55:07.760Z,100803.59
2023-03-22T02:58:19.546Z,100804.72
2023-03-22T03:00:51.157Z,100804.41
2023-03-22T03:03:19.913Z,100798.66
2023-03-22T03:05:55.524Z,100785.00
2023-03-22T03:08:23.922Z,100796.41
2023-03-22T03:10:52.611Z,100794.69
2023-03-22T03:13:19.362Z,100787.47
2023-03-22T03:15:54.309Z,100790.13
2023-03-22T03:18:46.107Z,100783.84
2023-03-22T03:21:32.629Z,100792.84
2023-03-22T03:24:39.805Z,100796.38
2023-03-22T03:27:16.882Z,100800.22
2023-03-22T03:30:05.806Z,100798.31
2023-03-22T03:32:38.296Z,100797.19
2023-03-22T03:35:22.384Z,100801.84
2023-03-22T03:38:08.740Z,100790.41
2023-03-22T03:40:41.216Z,100791.53
2023-03-22T03:43:09.790Z,100796.69
2023-03-22T03:45:37.689Z,100790.13
2023-03-22T03:48:09.146Z,100791.72
2023-03-22T03:50:37.605Z,100797.69
2023-03-22T03:53:04.502Z,100786.44
2023-03-22T03:55:32.127Z,100771.66
2023-03-22T03:57:58.632Z,100781.94
2023-03-22T04:00:25.343Z,100778.91
2023-03-22T04:03:18.244Z,100781.81
2023-03-22T04:06:03.764Z,100785.34
2023-03-22T04:08:34.665Z,100784.22
2023-03-22T04:11:01.773Z,100783.13
2023-03-22T04:13:29.786Z,100781.50
2023-03-22T04:16:02.076Z,100784.72
2023-03-22T04:18:32.125Z,100781.69
2023-03-22T04:21:03.429Z,100778.63
2023-03-22T04:23:35.570Z,100781.38
2023-03-22T04:26:02.150Z,100771.75
2023-03-22T04:28:39.133Z,100767.25
2023-03-22T04:31:06.878Z,100764.53
2023-03-22T04:33:47.297Z,100767.75
2023-03-22T04:36:22.989Z,100763.09
2023-03-22T04:39:11.627Z,100753.47
2023-03-22T04:41:39.438Z,100739.78
2023-03-22T04:44:07.327Z,100749.59
2023-03-22T04:46:37.828Z,100751.53
2023-03-22T04:49:06.717Z,100748.81
2023-03-22T04:51:36.801Z,100753.47
2023-03-22T04:54:32.570Z,100743.97
2023-03-22T04:56:59.247Z,100748.00
2023-03-22T04:59:27.925Z,100750.91
2023-03-22T05:01:54.715Z,100740.47
2023-03-22T05:04:27.141Z,100744.00
2023-03-22T05:07:00.392Z,100732.25
2023-03-22T05:09:35.740Z,100731.44
2023-03-22T05:12:03.843Z,100735.31
2023-03-22T05:14:39.546Z,100735.44
2023-03-22T05:17:09.880Z,100723.72
2023-03-22T05:19:38.652Z,100722.41
2023-03-22T05:22:05.317Z,100724.34
2023-03-22T05:24:48.613Z,100723.22
2023-03-22T05:27:30.908Z,100724.34
2023-03-22T05:30:04.631Z,100725.78
2023-03-22T05:33:03.208Z,100735.41
2023-03-22T05:35:33.958Z,100715.78
2023-03-22T05:38:02.442Z,100713.34
2023-03-22T05:40:31.626Z,100717.53
2023-03-22T05:42:58.374Z,100717.84
2023-03-22T05:45:27.291Z,100717.84
2023-03-22T05:48:11.121Z,100718.66
2023-03-22T05:50:38.614Z,100718.16
2023-03-22T05:53:05.784Z,100717.34
2023-03-22T05:55:47.762Z,100705.13
2023-03-22T05:58:19.100Z,100707.84
2023-03-22T06:00:49.902Z,100702.38
2023-03-22T06:03:39.788Z,100698.84
2023-03-22T06:06:14.335Z,100702.38
2023-03-22T06:08:47.922Z,100705.28
2023-03-22T06:11:15.561Z,100704.97
2023-03-22T06:13:42.052Z,100701.94
2023-03-22T06:16:10.103Z,100702.13
2023-03-22T06:18:36.780Z,100705.34
2023-03-22T06:21:08.462Z,100707.94
2023-03-22T06:23:34.999Z,100702.47
2023-03-22T06:26:01.492Z,100710.66
2023-03-22T06:28:29.850Z,100710.34
2023-03-22T06:30:57.684Z,100706.19
2023-03-22T06:33:31.343Z,100708.47
2023-03-22T06:36:06.561Z,100700.94
2023-03-22T06:38:41.194Z,100707.25
2023-03-22T06:41:07.662Z,100710.19
2023-03-22T06:43:34.269Z,100707.59
2023-03-22T06:46:12.168Z,100705.50
2023-03-22T06:48:45.814Z,100707.78
2023-03-22T06:51:15.241Z,100711.63
2023-03-22T06:53:42.334Z,100716.13
2023-03-22T06:56:09.719Z,100719.19
2023-03-22T06:58:50.171Z,100719.69
2023-03-22T07:01:19.305Z,100706.66
2023-03-22T07:03:47.824Z,100714.22
2023-03-22T07:06:16.440Z,100712.59
2023-03-22T07:08:46.786Z,100706.31
2023-03-22T07:11:43.125Z,100704.88
2023-03-22T07:14:09.649Z,100702.47
2023-03-22T07:16:55.021Z,100701.66
2023-03-22T07:19:23.102Z,100710.19
2023-03-22T07:21:52.583Z,100714.84
2023-03-22T07:24:20.308Z,100721.94
2023-03-22T07:26:46.927Z,100716.78
2023-03-22T07:29:18.432Z,100718.88
2023-03-22T07:31:45.785Z,100705.03
2023-03-22T07:34:30.496Z,100699.84
2023-03-22T07:37:04.271Z,100703.88
2023-03-22T07:39:31.513Z,100706.78
2023-03-22T07:41:58.495Z,100705.66
2023-03-22T07:44:25.220Z,100706.28
2023-03-22T07:47:27.188Z,100703.53
2023-03-22T07:50:21.134Z,100704.47
2023-03-22T07:52:53.129Z,100697.69
2023-03-22T07:55:19.771Z,100703.16
2023-03-22T07:57:46.487Z,100718.19
2023-03-22T08:00:15.629Z,100701.75
2023-03-22T08:02:45.968Z,100708.66
2023-03-22T08:05:25.506Z,100711.22
2023-03-22T08:07:58.923Z,100710.66
2023-03-22T08:10:26.930Z,100694.78
2023-03-22T08:12:54.420Z,100696.34
2023-03-22T08:15:24.021Z,100711.72
2023-03-22T08:17:50.886Z,100711.19
2023-03-22T08:20:28.053Z,100702.03
2023-03-22T08:22:58.977Z,100699.81
2023-03-22T08:26:00.847Z,100706.63
2023-03-22T08:28:27.814Z,100703.41
2023-03-22T08:30:54.251Z,100700.34
2023-03-22T08:33:23.653Z,100701.97
2023-03-22T08:35:52.314Z,100705.19
2023-03-22T08:38:19.631Z,100701.47
2023-03-22T08:40:49.893Z,100703.06
2023-03-22T08:43:20.959Z,100694.19
2023-03-22T08:45:47.587Z,100698.34
2023-03-22T08:48:16.313Z,100698.47
2023-03-22T08:51:02.390Z,100689.03
2023-03-22T08:53:38.859Z,100699.97
2023-03-22T08:56:27.342Z,100700.72
2023-03-22T08:59:09.867Z,100700.56
2023-03-22T09:01:52.683Z,100692.19
2023-03-22T09:04:19.464Z,100696.59
2023-03-22T09:06:47.059Z,100700.19
2023-03-22T09:09:16.240Z,100702.03
2023-03-22T09:11:46.199Z,100696.06
2023-03-22T09:14:12.853Z,100698.00
2023-03-22T09:16:39.715Z,100699.16
2023-03-22T09:19:06.783Z,100712.72
2023-03-22T09:21:34.110Z,100704.16
2023-03-22T09:24:16.570Z,100703.50
2023-03-22T09:26:46.840Z,100698.00
2023-03-22T09:29:16.423Z,100705.28
2023-03-22T09:31:54.905Z,100704.34
2023-03-22T09:34:29.133Z,100705.00
2023-03-22T09:36:59.287Z,100704.53
2023-03-22T09:39:29.826Z,100702.91
2023-03-22T09:42:02.434Z,100702.44
2023-03-22T09:44:41.546Z,100715.22
2023-03-22T09:47:17.856Z,100709.31
2023-03-22T09:49:53.801Z,100712.88
2023-03-22T09:52:20.769Z,100711.59
2023-03-22T09:54:47.549Z,100705.03
2023-03-22T09:57:26.250Z,100710.19
2023-03-22T10:00:14.851Z,100718.97
2023-03-22T10:03:01.744Z,100695.13
2023-03-22T10:05:51.300Z,100703.66
2023-03-22T10:08:38.936Z,100702.22
2023-03-22T10:11:16.102Z,100690.44
2023-03-22T10:14:00.753Z,100695.91
2023-03-22T10:16:33.147Z,100698.34
2023-03-22T10:19:20.735Z,100686.56
2023-03-22T10:21:50.492Z,100686.88
2023-03-22T10:24:23.646Z,100699.94
2023-03-22T10:26:52.258Z,100695.13
2023-03-22T10:29:38.348Z,100699.94
2023-03-22T10:32:15.868Z,100698.47
2023-03-22T10:34:43.516Z,100700.41
2023-03-22T10:37:17.310Z,100695.75
2023-03-22T10:39:50.712Z,100693.81
2023-03-22T10:42:21.755Z,100700.41
2023-03-22T10:44:52.666Z,100703.34
2023-03-22T10:47:26.963Z,100698.84
2023-03-22T10:49:56.250Z,100695.44
2023-03-22T10:52:36.940Z,100701.06
2023-03-22T10:55:04.772Z,100699.47
2023-03-22T10:57:31.465Z,100699.94
2023-03-22T10:59:58.461Z,100695.59
2023-03-22T11:02:31.694Z,100689.78
2023-03-22T11:05:05.866Z,100687.19
2023-03-22T11:07:38.089Z,100694.31
2023-03-22T11:10:10.489Z,100683.19
2023-03-22T11:12:43.642Z,100680.13
2023-03-22T11:15:51.990Z,100695.75
2023-03-22T11:18:19.434Z,100675.44
2023-03-22T11:20:56.914Z,100684.78
2023-03-22T11:23:25.803Z,100678.81
2023-03-22T11:25:56.427Z,100679.63
2023-03-22T11:28:40.638Z,100673.97
2023-03-22T11:31:15.844Z,100682.19
2023-03-22T11:33:57.502Z,100678.31
2023-03-22T11:36:25.053Z,100678.75
2023-03-22T11:39:00.601Z,100658.59
2023-03-22T11:41:29.811Z,100678.09
2023-03-22T11:44:03.266Z,100684.06
2023-03-22T11:46:31.647Z,100696.66
2023-03-22T11:49:02.478Z,100677.47
2023-03-22T11:51:33.375Z,100690.19
2023-03-22T11:54:13.389Z,100690.19
2023-03-22T11:56:43.408Z,100680.81
2023-03-22T11:59:30.335Z,100703.88
2023-03-22T12:02:03.334Z,100704.53
2023-03-22T12:04:34.491Z,100698.59
2023-03-22T12:07:06.419Z,100703.25
2023-03-22T12:09:51.915Z,100700.53
2023-03-22T12:12:27.104Z,100720.03
2023-03-22T12:15:06.766Z,100700.03
2023-03-22T12:17:58.982Z,100695.03
2023-03-22T12:20:42.379Z,100690.50
2023-03-22T12:23:16.325Z,100697.59
2023-03-22T12:25:56.980Z,100689.84
2023-03-22T12:28:30.017Z,100694.69
2023-03-22T12:30:58.477Z,100695.47
2023-03-22T12:33:25.367Z,100694.69
2023-03-22T12:35:58.105Z,100684.03
2023-03-22T12:38:42.768Z,100695.81
2023-03-22T12:41:26.433Z,100688.72
2023-03-22T12:43:56.101Z,100691.47
2023-03-22T12:46:29.093Z,100685.31
2023-03-22T12:49:22.314Z,100680.97
2023-03-22T12:51:52.220Z,100682.56
2023-03-22T12:54:24.053Z,100675.16
2023-03-22T12:56:52.754Z,100681.13
2023-03-22T12:59:28.783Z,100674.50
2023-03-22T13:02:06.205Z,100667.88
2023-03-22T13:04:35.869Z,100678.53
2023-03-22T13:07:14.413Z,100672.38
2023-03-22T13:09:51.467Z,100681.09
2023-03-22T13:12:18.052Z,100678.00
2023-03-22T13:14:57.966Z,100683.16
2023-03-22T13:17:24.889Z,100686.09
2023-03-22T13:20:06.779Z,100684.47
2023-03-22T13:22:36.447Z,100689.97
2023-03-22T13:25:07.200Z,100695.13
2023-03-22T13:27:39.708Z,100686.91
2023-03-22T13:30:17.107Z,100690.91
2023-03-22T13:32:54.607Z,100688.19
2023-03-22T13:35:27.834Z,100687.03
2023-03-22T13:38:04.673Z,100688.66
2023-03-22T13:40:49.012Z,100686.72
2023-03-22T13:43:25.329Z,100682.81
2023-03-22T13:46:06.709Z,100690.22
2023-03-22T13:48:47.035Z,100685.22
2023-03-22T13:51:30.099Z,100683.63
2023-03-22T13:54:20.622Z,100681.69
2023-03-22T13:57:00.999Z,100671.84
2023-03-22T13:59:28.047Z,100671.50
2023-03-22T14:02:05.383Z,100679.06
2023-03-22T14:04:40.797Z,100675.19
2023-03-22T14:07:31.416Z,100673.25
2023-03-22T14:10:03.456Z,100669.72
2023-03-22T14:12:53.688Z,100669.72
2023-03-22T14:15:24.156Z,100662.09
2023-03-22T14:18:04.247Z,100657.91
2023-03-22T14:20:35.666Z,100658.84
